^^
Station Historical Data
Daily Summary for February 22, 2017 Units:  Metric    English   Both
« Previous Day
Next Day »
Daily Weekly Monthly Yearly Custom
  High: Low: Average:
Temperature: 34.4 °C 25.5 °C 30.6 °C
Dew Point: 9.9 °C 3.1 °C 6.6 °C
Humidity: 37% 15% 24%
Wind Speed: 24.1km/h 0km/h 14.6km/h
Wind Gust: 27.4km/h - -
Wind- - SSE
Pressure: 1008 hPa 1003.9 hPa -
Precipitation: 0 mm    
Historical Graphs
 
 
Tabular Data for February 22, 2017
Time Temperature Dew Point Pressure Wind Wind Speed Wind Gust Humidity Rainfall Rate (Hourly) solar Conditions
15:29 33.6 °C 4.3 °C 1004.6 hPa Calm   9.7 km/h 16% 0 mm 800.0 W/m2
15:45 34.2 °C 4.8 °C 1004.6 hPa SSE 19.5 km/h 25.7 km/h 16% 0 mm 782.0 W/m2
15:49 34.2 °C 3.9 °C 1004.6 hPa SE 14.3 km/h 17.7 km/h 15% 0 mm 758.0 W/m2
16:06 33.9 °C 5.4 °C 1004.6 hPa South 17.7 km/h 22.5 km/h 17% 0 mm 717.0 W/m2
16:16 33.8 °C 5.3 °C 1004.6 hPa Calm     17% 0 mm 710.0 W/m2
16:31 34.1 °C 4.7 °C 1004.3 hPa SSW 7.9 km/h 16.1 km/h 16% 0 mm 687.0 W/m2
16:42 34.4 °C 5 °C 1004.3 hPa South 14.3 km/h 27.4 km/h 16% 0 mm 666.0 W/m2
16:57 34.3 °C 4 °C 1004.3 hPa SSE 11.1 km/h 20.9 km/h 15% 0 mm 591.0 W/m2
17:05 33.8 °C 3.6 °C 1004.3 hPa SSE 7.9 km/h 25.7 km/h 15% 0 mm 490.0 W/m2
17:10 33.7 °C 3.5 °C 1004.3 hPa SSE 11.1 km/h 20.9 km/h 15% 0 mm 445.0 W/m2
17:20 33.6 °C 3.4 °C 1004.3 hPa SSE 19.5 km/h 24.1 km/h 15% 0 mm 422.0 W/m2
17:41 33.7 °C 3.5 °C 1003.9 hPa SSE 16.3 km/h 17.7 km/h 15% 0 mm 364.0 W/m2
17:49 33.4 °C 3.2 °C 1003.9 hPa SSE 13 km/h 19.3 km/h 15% 0 mm 339.0 W/m2
17:56 33.2 °C 3.1 °C 1003.9 hPa SSE 20.9 km/h 22.5 km/h 15% 0 mm 63.0 W/m2
18:07 33.2 °C 3.1 °C 1003.9 hPa SSE 6.4 km/h 12.9 km/h 15% 0 mm 202.0 W/m2
18:10 33.4 °C 3.2 °C 1003.9 hPa SSE 16.3 km/h 16.3 km/h 15% 0 mm 241.0 W/m2
18:27 33.4 °C 5 °C 1004.3 hPa SSE 22.7 km/h 25.7 km/h 17% 0 mm 199.0 W/m2
18:42 33.2 °C 4.9 °C 1004.3 hPa SSE 11.1 km/h 20.9 km/h 17% 0 mm 125.0 W/m2
18:56 32.7 °C 5.3 °C 1004.3 hPa SE 16.3 km/h 22.5 km/h 18% 0 mm 67.0 W/m2
19:06 32.6 °C 5.2 °C 1004.6 hPa SE 17.7 km/h 24.1 km/h 18% 0 mm 21.0 W/m2
19:14 32.2 °C 5.7 °C 1004.6 hPa SE 19.5 km/h 22.5 km/h 19% 0 mm 11.0 W/m2
19:16 32.1 °C 5.6 °C 1004.6 hPa SE 20.9 km/h 22.5 km/h 19% 0 mm 7.0 W/m2
19:23 32 °C 5.5 °C 1004.6 hPa SE 17.7 km/h 24.1 km/h 19% 0 mm 5.0 W/m2
19:28 31.9 °C 4.6 °C 1005 hPa SE 17.7 km/h 22.5 km/h 18% 0 mm 0.0 W/m2
19:35 31.8 °C 4.6 °C 1005 hPa SE 13 km/h 17.7 km/h 18% 0 mm 0.0 W/m2
19:36 31.8 °C 4.6 °C 1004.6 hPa SE 17.7 km/h 17.7 km/h 18% 0 mm 0.0 W/m2
19:53 31.2 °C 8.2 °C 1005.3 hPa South 24.1 km/h 24.1 km/h 24% 0 mm 0.0 W/m2
20:06 29.9 °C 8.9 °C 1005.6 hPa SSW 19.5 km/h 25.7 km/h 27% 0 mm 0.0 W/m2
20:14 29.6 °C 8.6 °C 1005.6 hPa SSW 14.3 km/h 22.5 km/h 27% 0 mm 0.0 W/m2
21:55 27.8 °C 9.6 °C 1007.3 hPa South 19.5 km/h 20.9 km/h 32% 0 mm 0.0 W/m2
22:04 27.5 °C 9.3 °C 1007.3 hPa South 20.9 km/h 24.1 km/h 32% 0 mm 0.0 W/m2
22:09 27.4 °C 9.7 °C 1007.3 hPa South 14.3 km/h 22.5 km/h 33% 0 mm 0.0 W/m2
22:19 27.2 °C 9.5 °C 1007.7 hPa South 17.7 km/h 19.3 km/h 33% 0 mm 0.0 W/m2
22:24 27.1 °C 9.4 °C 1007.7 hPa South 14.3 km/h 19.3 km/h 33% 0 mm 0.0 W/m2
22:34 26.9 °C 9.7 °C 1007.7 hPa South 13 km/h 20.9 km/h 34% 0 mm 0.0 W/m2
22:39 26.8 °C 9.6 °C 1007.7 hPa South 14.3 km/h 19.3 km/h 34% 0 mm 0.0 W/m2
22:44 26.6 °C 9.4 °C 1007.7 hPa South 16.3 km/h 19.3 km/h 34% 0 mm 0.0 W/m2
22:49 26.4 °C 9.7 °C 1007.7 hPa South 17.7 km/h 20.9 km/h 35% 0 mm 0.0 W/m2
22:54 26.4 °C 9.7 °C 1007.7 hPa South 13 km/h 19.3 km/h 35% 0 mm 0.0 W/m2
23:05 26.2 °C 9.5 °C 1007.7 hPa South 16.3 km/h 16.3 km/h 35% 0 mm 0.0 W/m2
23:10 26.1 °C 9.9 °C 1007.7 hPa SSW 13 km/h 17.7 km/h 36% 0 mm 0.0 W/m2
23:15 26 °C 9.8 °C 1008 hPa SSW 13 km/h 19.3 km/h 36% 0 mm 0.0 W/m2
23:20 25.8 °C 9.6 °C 1008 hPa SSW 11.1 km/h 16.1 km/h 36% 0 mm 0.0 W/m2
23:23 25.7 °C 9.5 °C 1007.7 hPa SSW 14.3 km/h 16.1 km/h 36% 0 mm 0.0 W/m2
23:31 25.6 °C 9.8 °C 1008 hPa SSW 9.7 km/h 17.7 km/h 37% 0 mm 0.0 W/m2
23:36 25.5 °C 9.7 °C 1008 hPa SSW 7.9 km/h 14.5 km/h 37% 0 mm 0.0 W/m2
Canyon Roadhouse, Fishriver Canyon, Namibia
Compliments of Weather Underground - 1.75 mb